sensor_id;sensor_type;location;lat;lon;timestamp;temperature;humidity
21019;DHT22;10667;51.056;3.732;2022-12-16T00:00:06;2.20;99.90
21019;DHT22;10667;51.056;3.732;2022-12-16T00:02:33;2.30;99.90
21019;DHT22;10667;51.056;3.732;2022-12-16T00:04:58;2.30;99.90
21019;DHT22;10667;51.056;3.732;2022-12-16T00:07:24;2.20;99.90
21019;DHT22;10667;51.056;3.732;2022-12-16T00:09:50;2.20;99.90
21019;DHT22;10667;51.056;3.732;2022-12-16T00:12:15;2.20;99.90
21019;DHT22;10667;51.056;3.732;2022-12-16T00:14:41;2.20;99.90
21019;DHT22;10667;51.056;3.732;2022-12-16T00:17:07;2.20;99.90
21019;DHT22;10667;51.056;3.732;2022-12-16T00:19:32;2.20;99.90
21019;DHT22;10667;51.056;3.732;2022-12-16T00:21:58;2.20;99.90
21019;DHT22;10667;51.056;3.732;2022-12-16T00:24:24;2.20;99.90
21019;DHT22;10667;51.056;3.732;2022-12-16T00:26:49;2.10;99.90
21019;DHT22;10667;51.056;3.732;2022-12-16T00:29:15;2.10;99.90
21019;DHT22;10667;51.056;3.732;2022-12-16T00:31:41;2.10;99.90
21019;DHT22;10667;51.056;3.732;2022-12-16T00:34:13;2.20;99.90
21019;DHT22;10667;51.056;3.732;2022-12-16T00:36:39;2.10;99.90
21019;DHT22;10667;51.056;3.732;2022-12-16T00:39:05;2.10;99.90
21019;DHT22;10667;51.056;3.732;2022-12-16T00:41:30;2.10;99.90
21019;DHT22;10667;51.056;3.732;2022-12-16T00:43:56;2.10;99.90
21019;DHT22;10667;51.056;3.732;2022-12-16T00:46:22;2.10;99.90
21019;DHT22;10667;51.056;3.732;2022-12-16T00:48:47;2.00;99.90
21019;DHT22;10667;51.056;3.732;2022-12-16T00:51:13;2.10;99.90
21019;DHT22;10667;51.056;3.732;2022-12-16T00:53:39;2.20;99.90
21019;DHT22;10667;51.056;3.732;2022-12-16T00:56:07;2.20;99.90
21019;DHT22;10667;51.056;3.732;2022-12-16T00:58:33;2.20;99.90
21019;DHT22;10667;51.056;3.732;2022-12-16T01:01:00;2.30;99.90
21019;DHT22;10667;51.056;3.732;2022-12-16T01:03:26;2.40;99.90
21019;DHT22;10667;51.056;3.732;2022-12-16T01:05:52;2.50;99.90
21019;DHT22;10667;51.056;3.732;2022-12-16T01:08:21;2.50;99.90
21019;DHT22;10667;51.056;3.732;2022-12-16T01:10:54;2.50;99.90
21019;DHT22;10667;51.056;3.732;2022-12-16T01:13:22;2.50;99.90
21019;DHT22;10667;51.056;3.732;2022-12-16T01:15:48;2.60;99.90
21019;DHT22;10667;51.056;3.732;2022-12-16T01:18:15;2.70;99.90
21019;DHT22;10667;51.056;3.732;2022-12-16T01:20:40;2.70;99.90
21019;DHT22;10667;51.056;3.732;2022-12-16T01:23:06;2.70;99.90
21019;DHT22;10667;51.056;3.732;2022-12-16T01:25:32;2.70;99.90
21019;DHT22;10667;51.056;3.732;2022-12-16T01:27:57;2.70;99.90
21019;DHT22;10667;51.056;3.732;2022-12-16T01:30:23;2.80;99.90
21019;DHT22;10667;51.056;3.732;2022-12-16T01:32:49;2.80;99.90
21019;DHT22;10667;51.056;3.732;2022-12-16T01:35:15;3.00;99.90
21019;DHT22;10667;51.056;3.732;2022-12-16T01:37:41;3.00;99.90
21019;DHT22;10667;51.056;3.732;2022-12-16T01:40:12;3.00;99.90
21019;DHT22;10667;51.056;3.732;2022-12-16T01:42:42;3.00;99.90
21019;DHT22;10667;51.056;3.732;2022-12-16T01:45:33;3.10;99.90
21019;DHT22;10667;51.056;3.732;2022-12-16T01:51:09;3.00;99.90
21019;DHT22;10667;51.056;3.732;2022-12-16T01:53:36;3.10;99.90
21019;DHT22;10667;51.056;3.732;2022-12-16T01:56:03;3.10;99.90
21019;DHT22;10667;51.056;3.732;2022-12-16T01:58:31;3.10;99.90
21019;DHT22;10667;51.056;3.732;2022-12-16T02:00:58;3.10;99.90
21019;DHT22;10667;51.056;3.732;2022-12-16T02:03:25;3.10;99.90
21019;DHT22;10667;51.056;3.732;2022-12-16T02:05:52;3.00;99.90
21019;DHT22;10667;51.056;3.732;2022-12-16T02:08:19;2.90;99.90
21019;DHT22;10667;51.056;3.732;2022-12-16T02:29:06;3.00;99.90
21019;DHT22;10667;51.056;3.732;2022-12-16T02:40:02;3.20;99.90
21019;DHT22;10667;51.056;3.732;2022-12-16T02:42:41;3.20;99.90
21019;DHT22;10667;51.056;3.732;2022-12-16T02:45:17;3.20;99.90
21019;DHT22;10667;51.056;3.732;2022-12-16T02:47:45;3.20;99.90
21019;DHT22;10667;51.056;3.732;2022-12-16T02:50:46;3.20;99.90
21019;DHT22;10667;51.056;3.732;2022-12-16T02:53:13;3.40;99.90
21019;DHT22;10667;51.056;3.732;2022-12-16T03:04:09;3.60;99.90
21019;DHT22;10667;51.056;3.732;2022-12-16T03:06:37;3.60;99.90
21019;DHT22;10667;51.056;3.732;2022-12-16T03:09:07;3.60;99.90
21019;DHT22;10667;51.056;3.732;2022-12-16T03:11:34;3.70;99.90
21019;DHT22;10667;51.056;3.732;2022-12-16T03:14:02;3.70;99.90
21019;DHT22;10667;51.056;3.732;2022-12-16T03:16:31;3.80;99.90
21019;DHT22;10667;51.056;3.732;2022-12-16T03:19:02;3.70;99.90
21019;DHT22;10667;51.056;3.732;2022-12-16T03:21:32;3.70;99.90
21019;DHT22;10667;51.056;3.732;2022-12-16T03:24:05;3.70;99.90
21019;DHT22;10667;51.056;3.732;2022-12-16T03:26:49;3.80;99.90
21019;DHT22;10667;51.056;3.732;2022-12-16T03:29:34;3.90;99.90
21019;DHT22;10667;51.056;3.732;2022-12-16T03:32:04;3.90;99.90
21019;DHT22;10667;51.056;3.732;2022-12-16T03:37:14;3.90;99.90
21019;DHT22;10667;51.056;3.732;2022-12-16T03:39:52;4.00;99.90
21019;DHT22;10667;51.056;3.732;2022-12-16T03:42:18;4.00;99.90
21019;DHT22;10667;51.056;3.732;2022-12-16T03:44:45;4.00;99.90
21019;DHT22;10667;51.056;3.732;2022-12-16T03:47:12;3.90;99.90
21019;DHT22;10667;51.056;3.732;2022-12-16T03:49:38;3.80;99.90
21019;DHT22;10667;51.056;3.732;2022-12-16T03:52:04;3.80;99.90
21019;DHT22;10667;51.056;3.732;2022-12-16T03:54:30;3.80;99.90
21019;DHT22;10667;51.056;3.732;2022-12-16T03:56:56;3.60;99.90
21019;DHT22;10667;51.056;3.732;2022-12-16T03:59:21;3.60;99.90
21019;DHT22;10667;51.056;3.732;2022-12-16T04:01:47;3.60;99.90
21019;DHT22;10667;51.056;3.732;2022-12-16T04:04:13;3.60;99.90
21019;DHT22;10667;51.056;3.732;2022-12-16T04:06:38;3.40;99.90
21019;DHT22;10667;51.056;3.732;2022-12-16T04:09:04;3.50;99.90
21019;DHT22;10667;51.056;3.732;2022-12-16T04:11:30;3.50;99.90
21019;DHT22;10667;51.056;3.732;2022-12-16T04:14:14;3.50;99.90
21019;DHT22;10667;51.056;3.732;2022-12-16T04:16:58;3.50;99.90
21019;DHT22;10667;51.056;3.732;2022-12-16T04:19:43;3.60;99.90
21019;DHT22;10667;51.056;3.732;2022-12-16T04:22:36;3.40;99.90
21019;DHT22;10667;51.056;3.732;2022-12-16T04:25:26;3.40;99.90
21019;DHT22;10667;51.056;3.732;2022-12-16T04:27:52;3.40;99.90
21019;DHT22;10667;51.056;3.732;2022-12-16T04:30:19;3.40;99.90
21019;DHT22;10667;51.056;3.732;2022-12-16T04:32:46;3.40;99.90
21019;DHT22;10667;51.056;3.732;2022-12-16T04:35:31;3.30;99.90
21019;DHT22;10667;51.056;3.732;2022-12-16T04:38:16;3.20;99.90
21019;DHT22;10667;51.056;3.732;2022-12-16T04:41:00;3.30;99.90
21019;DHT22;10667;51.056;3.732;2022-12-16T04:43:44;3.30;99.90
21019;DHT22;10667;51.056;3.732;2022-12-16T04:46:28;3.30;99.90
21019;DHT22;10667;51.056;3.732;2022-12-16T04:49:12;3.40;99.90
21019;DHT22;10667;51.056;3.732;2022-12-16T04:51:56;3.40;99.90
21019;DHT22;10667;51.056;3.732;2022-12-16T04:54:40;3.50;99.90
21019;DHT22;10667;51.056;3.732;2022-12-16T04:57:24;3.60;99.90
21019;DHT22;10667;51.056;3.732;2022-12-16T05:00:09;3.60;99.90
21019;DHT22;10667;51.056;3.732;2022-12-16T05:02:53;3.50;99.90
21019;DHT22;10667;51.056;3.732;2022-12-16T05:05:37;3.40;99.90
21019;DHT22;10667;51.056;3.732;2022-12-16T05:08:21;3.40;99.90
21019;DHT22;10667;51.056;3.732;2022-12-16T05:11:05;3.60;99.90
21019;DHT22;10667;51.056;3.732;2022-12-16T05:13:49;3.60;99.90
21019;DHT22;10667;51.056;3.732;2022-12-16T05:16:33;3.60;99.90
21019;DHT22;10667;51.056;3.732;2022-12-16T05:19:17;3.60;99.90
21019;DHT22;10667;51.056;3.732;2022-12-16T05:22:01;3.60;99.90
21019;DHT22;10667;51.056;3.732;2022-12-16T05:24:45;3.50;99.90
21019;DHT22;10667;51.056;3.732;2022-12-16T05:27:30;3.60;99.90
21019;DHT22;10667;51.056;3.732;2022-12-16T05:30:14;3.60;99.90
21019;DHT22;10667;51.056;3.732;2022-12-16T05:32:58;3.50;99.90
21019;DHT22;10667;51.056;3.732;2022-12-16T05:35:42;3.60;99.90
21019;DHT22;10667;51.056;3.732;2022-12-16T05:38:26;3.40;99.90
21019;DHT22;10667;51.056;3.732;2022-12-16T05:41:10;3.30;99.90
21019;DHT22;10667;51.056;3.732;2022-12-16T05:43:54;3.30;99.90
21019;DHT22;10667;51.056;3.732;2022-12-16T05:46:38;3.30;99.90
21019;DHT22;10667;51.056;3.732;2022-12-16T05:49:22;3.10;99.90
21019;DHT22;10667;51.056;3.732;2022-12-16T05:52:07;3.10;99.90
21019;DHT22;10667;51.056;3.732;2022-12-16T05:54:51;3.20;99.90
21019;DHT22;10667;51.056;3.732;2022-12-16T05:57:35;3.20;99.90
21019;DHT22;10667;51.056;3.732;2022-12-16T06:00:19;3.30;99.90
21019;DHT22;10667;51.056;3.732;2022-12-16T06:03:03;3.30;99.90
21019;DHT22;10667;51.056;3.732;2022-12-16T06:05:47;3.30;99.90
21019;DHT22;10667;51.056;3.732;2022-12-16T06:08:31;3.20;99.90
21019;DHT22;10667;51.056;3.732;2022-12-16T06:11:15;3.30;99.90
21019;DHT22;10667;51.056;3.732;2022-12-16T06:14:00;3.20;99.90
21019;DHT22;10667;51.056;3.732;2022-12-16T06:16:48;3.30;99.90
21019;DHT22;10667;51.056;3.732;2022-12-16T06:19:32;3.20;99.90
21019;DHT22;10667;51.056;3.732;2022-12-16T06:22:16;3.30;99.90
21019;DHT22;10667;51.056;3.732;2022-12-16T06:25:01;3.30;99.90
21019;DHT22;10667;51.056;3.732;2022-12-16T06:27:50;3.30;99.90
21019;DHT22;10667;51.056;3.732;2022-12-16T06:30:34;3.40;99.90
21019;DHT22;10667;51.056;3.732;2022-12-16T06:33:21;3.50;99.90
21019;DHT22;10667;51.056;3.732;2022-12-16T06:36:05;3.50;99.90
21019;DHT22;10667;51.056;3.732;2022-12-16T06:38:49;3.40;99.90
21019;DHT22;10667;51.056;3.732;2022-12-16T06:41:33;3.30;99.90
21019;DHT22;10667;51.056;3.732;2022-12-16T06:44:17;3.30;99.90
21019;DHT22;10667;51.056;3.732;2022-12-16T06:47:02;3.40;99.90
21019;DHT22;10667;51.056;3.732;2022-12-16T06:49:45;3.50;99.90
21019;DHT22;10667;51.056;3.732;2022-12-16T06:52:30;3.40;99.90
21019;DHT22;10667;51.056;3.732;2022-12-16T06:55:14;3.30;99.90
21019;DHT22;10667;51.056;3.732;2022-12-16T06:57:59;3.20;99.90
21019;DHT22;10667;51.056;3.732;2022-12-16T07:00:43;3.30;99.90
21019;DHT22;10667;51.056;3.732;2022-12-16T07:03:28;3.30;99.90
21019;DHT22;10667;51.056;3.732;2022-12-16T07:06:12;3.40;99.90
21019;DHT22;10667;51.056;3.732;2022-12-16T07:08:56;3.40;99.90
21019;DHT22;10667;51.056;3.732;2022-12-16T07:11:40;3.40;99.90
21019;DHT22;10667;51.056;3.732;2022-12-16T07:14:24;3.40;99.90
21019;DHT22;10667;51.056;3.732;2022-12-16T07:17:09;3.30;99.90
21019;DHT22;10667;51.056;3.732;2022-12-16T07:19:53;3.30;99.90
21019;DHT22;10667;51.056;3.732;2022-12-16T07:22:41;3.30;99.90
21019;DHT22;10667;51.056;3.732;2022-12-16T07:25:26;3.30;99.90
21019;DHT22;10667;51.056;3.732;2022-12-16T07:28:10;3.30;99.90
21019;DHT22;10667;51.056;3.732;2022-12-16T07:30:54;3.10;99.90
21019;DHT22;10667;51.056;3.732;2022-12-16T07:33:38;3.10;99.90
21019;DHT22;10667;51.056;3.732;2022-12-16T07:36:22;3.00;99.90
21019;DHT22;10667;51.056;3.732;2022-12-16T07:39:06;2.90;99.90
21019;DHT22;10667;51.056;3.732;2022-12-16T07:41:50;2.80;99.90
21019;DHT22;10667;51.056;3.732;2022-12-16T07:44:34;2.70;99.90
21019;DHT22;10667;51.056;3.732;2022-12-16T07:47:18;2.70;99.90
21019;DHT22;10667;51.056;3.732;2022-12-16T07:50:02;2.70;99.90
21019;DHT22;10667;51.056;3.732;2022-12-16T07:52:53;2.70;99.90
21019;DHT22;10667;51.056;3.732;2022-12-16T07:55:37;2.60;99.90
21019;DHT22;10667;51.056;3.732;2022-12-16T07:58:21;2.50;99.90
21019;DHT22;10667;51.056;3.732;2022-12-16T08:01:06;2.50;99.90
21019;DHT22;10667;51.056;3.732;2022-12-16T08:03:50;2.50;99.90
21019;DHT22;10667;51.056;3.732;2022-12-16T08:06:34;2.40;99.90
21019;DHT22;10667;51.056;3.732;2022-12-16T08:09:18;2.40;99.90
21019;DHT22;10667;51.056;3.732;2022-12-16T08:12:02;2.30;99.90
21019;DHT22;10667;51.056;3.732;2022-12-16T08:14:46;2.30;99.90
21019;DHT22;10667;51.056;3.732;2022-12-16T08:17:30;2.30;99.90
21019;DHT22;10667;51.056;3.732;2022-12-16T08:20:15;2.30;99.90
21019;DHT22;10667;51.056;3.732;2022-12-16T08:22:59;2.30;99.90
21019;DHT22;10667;51.056;3.732;2022-12-16T08:25:43;2.30;99.90
21019;DHT22;10667;51.056;3.732;2022-12-16T08:28:27;2.20;99.90
21019;DHT22;10667;51.056;3.732;2022-12-16T08:31:11;2.20;99.90
21019;DHT22;10667;51.056;3.732;2022-12-16T08:33:55;2.20;99.90
21019;DHT22;10667;51.056;3.732;2022-12-16T08:36:39;2.30;99.90
21019;DHT22;10667;51.056;3.732;2022-12-16T08:39:23;2.30;99.90
21019;DHT22;10667;51.056;3.732;2022-12-16T08:42:07;2.30;99.90
21019;DHT22;10667;51.056;3.732;2022-12-16T08:44:51;2.30;99.90
21019;DHT22;10667;51.056;3.732;2022-12-16T08:47:36;2.30;99.90
21019;DHT22;10667;51.056;3.732;2022-12-16T08:50:20;2.30;99.90
21019;DHT22;10667;51.056;3.732;2022-12-16T08:53:04;2.30;99.90
21019;DHT22;10667;51.056;3.732;2022-12-16T08:55:48;2.30;99.90
21019;DHT22;10667;51.056;3.732;2022-12-16T08:58:32;2.40;99.90
21019;DHT22;10667;51.056;3.732;2022-12-16T09:01:16;2.50;99.90
21019;DHT22;10667;51.056;3.732;2022-12-16T09:04:00;2.50;99.90
21019;DHT22;10667;51.056;3.732;2022-12-16T09:06:44;2.60;99.90
21019;DHT22;10667;51.056;3.732;2022-12-16T09:09:28;2.70;99.90
21019;DHT22;10667;51.056;3.732;2022-12-16T09:12:12;2.70;99.90
21019;DHT22;10667;51.056;3.732;2022-12-16T09:14:56;2.60;99.90
21019;DHT22;10667;51.056;3.732;2022-12-16T09:17:40;2.60;99.90
21019;DHT22;10667;51.056;3.732;2022-12-16T09:20:24;2.60;99.90
21019;DHT22;10667;51.056;3.732;2022-12-16T09:23:08;2.70;99.90
21019;DHT22;10667;51.056;3.732;2022-12-16T09:25:53;2.70;99.90
21019;DHT22;10667;51.056;3.732;2022-12-16T09:28:37;2.80;99.90
21019;DHT22;10667;51.056;3.732;2022-12-16T09:31:21;2.80;99.90
21019;DHT22;10667;51.056;3.732;2022-12-16T09:34:05;2.90;99.90
21019;DHT22;10667;51.056;3.732;2022-12-16T09:36:49;2.90;99.90
21019;DHT22;10667;51.056;3.732;2022-12-16T09:39:33;3.00;99.90
21019;DHT22;10667;51.056;3.732;2022-12-16T09:42:58;3.00;99.90
21019;DHT22;10667;51.056;3.732;2022-12-16T09:49:12;3.20;99.90
21019;DHT22;10667;51.056;3.732;2022-12-16T09:51:55;3.20;99.90
21019;DHT22;10667;51.056;3.732;2022-12-16T09:54:44;3.30;99.90
21019;DHT22;10667;51.056;3.732;2022-12-16T09:57:32;3.30;99.90
21019;DHT22;10667;51.056;3.732;2022-12-16T10:00:25;3.40;99.90
21019;DHT22;10667;51.056;3.732;2022-12-16T10:03:33;3.50;99.90
21019;DHT22;10667;51.056;3.732;2022-12-16T10:06:48;3.60;99.90
21019;DHT22;10667;51.056;3.732;2022-12-16T10:18:34;3.80;99.90
21019;DHT22;10667;51.056;3.732;2022-12-16T10:21:28;3.80;99.90
21019;DHT22;10667;51.056;3.732;2022-12-16T10:24:20;3.80;99.90
21019;DHT22;10667;51.056;3.732;2022-12-16T10:27:14;3.90;99.90
21019;DHT22;10667;51.056;3.732;2022-12-16T10:30:00;4.00;99.90
21019;DHT22;10667;51.056;3.732;2022-12-16T10:32:53;4.10;99.90
21019;DHT22;10667;51.056;3.732;2022-12-16T10:35:50;4.10;99.90
21019;DHT22;10667;51.056;3.732;2022-12-16T10:41:24;4.30;99.90
21019;DHT22;10667;51.056;3.732;2022-12-16T10:44:23;4.40;99.90
21019;DHT22;10667;51.056;3.732;2022-12-16T10:47:11;4.40;99.90
21019;DHT22;10667;51.056;3.732;2022-12-16T10:49:55;4.30;99.90
21019;DHT22;10667;51.056;3.732;2022-12-16T10:52:55;4.30;99.90
21019;DHT22;10667;51.056;3.732;2022-12-16T10:59:05;4.30;99.90
21019;DHT22;10667;51.056;3.732;2022-12-16T11:02:01;4.50;99.90
21019;DHT22;10667;51.056;3.732;2022-12-16T11:04:46;4.60;99.90
21019;DHT22;10667;51.056;3.732;2022-12-16T11:10:35;4.70;99.90
21019;DHT22;10667;51.056;3.732;2022-12-16T11:13:35;4.80;99.90
21019;DHT22;10667;51.056;3.732;2022-12-16T11:16:25;5.00;99.90
21019;DHT22;10667;51.056;3.732;2022-12-16T11:19:27;5.00;99.90
21019;DHT22;10667;51.056;3.732;2022-12-16T11:22:18;5.00;99.90
21019;DHT22;10667;51.056;3.732;2022-12-16T11:25:21;5.30;99.90
21019;DHT22;10667;51.056;3.732;2022-12-16T11:28:11;5.20;99.90
21019;DHT22;10667;51.056;3.732;2022-12-16T11:30:59;5.10;99.90
21019;DHT22;10667;51.056;3.732;2022-12-16T11:33:44;5.10;99.90
21019;DHT22;10667;51.056;3.732;2022-12-16T11:36:31;5.00;99.90
21019;DHT22;10667;51.056;3.732;2022-12-16T11:39:25;5.10;99.90
21019;DHT22;10667;51.056;3.732;2022-12-16T11:42:18;5.10;99.90
21019;DHT22;10667;51.056;3.732;2022-12-16T11:45:04;5.00;99.90
21019;DHT22;10667;51.056;3.732;2022-12-16T11:47:55;5.10;99.90
21019;DHT22;10667;51.056;3.732;2022-12-16T11:50:47;5.20;99.90
21019;DHT22;10667;51.056;3.732;2022-12-16T11:54:16;5.30;99.90
21019;DHT22;10667;51.056;3.732;2022-12-16T11:56:53;5.40;99.90
21019;DHT22;10667;51.056;3.732;2022-12-16T12:00:00;5.30;99.90
21019;DHT22;10667;51.056;3.732;2022-12-16T12:03:05;5.40;99.90
21019;DHT22;10667;51.056;3.732;2022-12-16T12:09:21;5.50;99.90
21019;DHT22;10667;51.056;3.732;2022-12-16T12:12:18;5.60;99.90
21019;DHT22;10667;51.056;3.732;2022-12-16T12:21:41;5.50;99.90
21019;DHT22;10667;51.056;3.732;2022-12-16T12:30:18;5.70;99.90
21019;DHT22;10667;51.056;3.732;2022-12-16T12:36:18;5.70;99.90
21019;DHT22;10667;51.056;3.732;2022-12-16T12:51:27;5.60;99.90
21019;DHT22;10667;51.056;3.732;2022-12-16T12:57:21;5.80;99.90
21019;DHT22;10667;51.056;3.732;2022-12-16T13:00:17;5.80;99.90
21019;DHT22;10667;51.056;3.732;2022-12-16T13:06:17;5.90;99.90
21019;DHT22;10667;51.056;3.732;2022-12-16T13:09:22;6.10;99.90
21019;DHT22;10667;51.056;3.732;2022-12-16T13:15:06;5.80;99.90
21019;DHT22;10667;51.056;3.732;2022-12-16T13:20:45;5.90;99.90
21019;DHT22;10667;51.056;3.732;2022-12-16T13:23:33;5.90;99.90
21019;DHT22;10667;51.056;3.732;2022-12-16T13:26:20;6.00;99.90
21019;DHT22;10667;51.056;3.732;2022-12-16T13:38:15;6.10;99.90
21019;DHT22;10667;51.056;3.732;2022-12-16T13:44:12;5.90;99.90
21019;DHT22;10667;51.056;3.732;2022-12-16T13:50:46;6.00;99.90
21019;DHT22;10667;51.056;3.732;2022-12-16T13:53:46;6.00;99.90
21019;DHT22;10667;51.056;3.732;2022-12-16T13:56:38;5.90;99.90
21019;DHT22;10667;51.056;3.732;2022-12-16T13:59:25;6.00;99.90
21019;DHT22;10667;51.056;3.732;2022-12-16T14:02:37;6.00;99.90
21019;DHT22;10667;51.056;3.732;2022-12-16T14:05:32;6.00;99.90
21019;DHT22;10667;51.056;3.732;2022-12-16T14:08:21;6.00;99.90
21019;DHT22;10667;51.056;3.732;2022-12-16T14:11:21;5.90;99.90
21019;DHT22;10667;51.056;3.732;2022-12-16T14:14:13;6.00;99.90
21019;DHT22;10667;51.056;3.732;2022-12-16T14:17:03;5.90;99.90
21019;DHT22;10667;51.056;3.732;2022-12-16T14:23:24;5.90;99.90
21019;DHT22;10667;51.056;3.732;2022-12-16T14:26:12;5.90;99.90
21019;DHT22;10667;51.056;3.732;2022-12-16T14:28:57;5.90;99.90
21019;DHT22;10667;51.056;3.732;2022-12-16T14:31:43;5.90;99.90
21019;DHT22;10667;51.056;3.732;2022-12-16T14:34:33;5.90;99.90
21019;DHT22;10667;51.056;3.732;2022-12-16T14:37:32;5.80;99.90
21019;DHT22;10667;51.056;3.732;2022-12-16T14:40:30;5.70;99.90
21019;DHT22;10667;51.056;3.732;2022-12-16T14:43:16;5.80;99.90
21019;DHT22;10667;51.056;3.732;2022-12-16T14:46:01;5.70;99.90
21019;DHT22;10667;51.056;3.732;2022-12-16T14:48:47;5.70;99.90
21019;DHT22;10667;51.056;3.732;2022-12-16T14:51:36;5.80;99.90
21019;DHT22;10667;51.056;3.732;2022-12-16T14:57:19;5.70;99.90
21019;DHT22;10667;51.056;3.732;2022-12-16T15:02:54;5.70;99.90
21019;DHT22;10667;51.056;3.732;2022-12-16T15:05:40;5.70;99.90
21019;DHT22;10667;51.056;3.732;2022-12-16T15:08:28;5.70;99.90
21019;DHT22;10667;51.056;3.732;2022-12-16T15:11:18;5.70;99.90
21019;DHT22;10667;51.056;3.732;2022-12-16T15:14:04;5.60;99.90
21019;DHT22;10667;51.056;3.732;2022-12-16T15:16:50;5.60;99.90
21019;DHT22;10667;51.056;3.732;2022-12-16T15:19:47;5.70;99.90
21019;DHT22;10667;51.056;3.732;2022-12-16T15:22:33;5.60;99.90
21019;DHT22;10667;51.056;3.732;2022-12-16T15:25:23;5.60;99.90
21019;DHT22;10667;51.056;3.732;2022-12-16T15:28:25;5.50;99.90
21019;DHT22;10667;51.056;3.732;2022-12-16T15:31:35;5.50;99.90
21019;DHT22;10667;51.056;3.732;2022-12-16T15:34:27;5.50;99.90
21019;DHT22;10667;51.056;3.732;2022-12-16T15:37:21;5.50;99.90
21019;DHT22;10667;51.056;3.732;2022-12-16T15:40:27;5.50;99.90
21019;DHT22;10667;51.056;3.732;2022-12-16T15:43:31;5.40;99.90
21019;DHT22;10667;51.056;3.732;2022-12-16T15:46:18;5.30;99.90
21019;DHT22;10667;51.056;3.732;2022-12-16T15:49:03;5.30;99.90
21019;DHT22;10667;51.056;3.732;2022-12-16T15:51:49;5.30;99.90
21019;DHT22;10667;51.056;3.732;2022-12-16T15:54:51;5.40;99.90
21019;DHT22;10667;51.056;3.732;2022-12-16T15:57:36;5.30;99.90
21019;DHT22;10667;51.056;3.732;2022-12-16T16:00:31;5.30;99.90
21019;DHT22;10667;51.056;3.732;2022-12-16T16:03:25;5.20;99.90
21019;DHT22;10667;51.056;3.732;2022-12-16T16:06:25;5.10;99.90
21019;DHT22;10667;51.056;3.732;2022-12-16T16:09:27;5.00;99.90
21019;DHT22;10667;51.056;3.732;2022-12-16T16:12:14;5.00;99.90
21019;DHT22;10667;51.056;3.732;2022-12-16T16:14:58;4.90;99.90
21019;DHT22;10667;51.056;3.732;2022-12-16T16:17:43;4.90;99.90
21019;DHT22;10667;51.056;3.732;2022-12-16T16:20:29;4.90;99.90
21019;DHT22;10667;51.056;3.732;2022-12-16T16:23:13;4.80;99.90
21019;DHT22;10667;51.056;3.732;2022-12-16T16:25:57;4.80;99.90
21019;DHT22;10667;51.056;3.732;2022-12-16T16:28:42;4.80;99.90
21019;DHT22;10667;51.056;3.732;2022-12-16T16:31:26;4.70;99.90
21019;DHT22;10667;51.056;3.732;2022-12-16T16:34:11;4.70;99.90
21019;DHT22;10667;51.056;3.732;2022-12-16T16:36:56;4.60;99.90
21019;DHT22;10667;51.056;3.732;2022-12-16T16:39:41;4.60;99.90
21019;DHT22;10667;51.056;3.732;2022-12-16T16:42:26;4.60;99.90
21019;DHT22;10667;51.056;3.732;2022-12-16T16:45:11;4.50;99.90
21019;DHT22;10667;51.056;3.732;2022-12-16T16:48:08;4.50;99.90
21019;DHT22;10667;51.056;3.732;2022-12-16T16:50:55;4.50;99.90
21019;DHT22;10667;51.056;3.732;2022-12-16T16:53:39;4.40;99.90
21019;DHT22;10667;51.056;3.732;2022-12-16T16:56:24;4.40;99.90
21019;DHT22;10667;51.056;3.732;2022-12-16T16:59:10;4.40;99.90
21019;DHT22;10667;51.056;3.732;2022-12-16T17:01:55;4.40;99.90
21019;DHT22;10667;51.056;3.732;2022-12-16T17:04:40;4.40;99.90
21019;DHT22;10667;51.056;3.732;2022-12-16T17:07:24;4.40;99.90
21019;DHT22;10667;51.056;3.732;2022-12-16T17:10:08;4.40;99.90
21019;DHT22;10667;51.056;3.732;2022-12-16T17:12:53;4.40;99.90
21019;DHT22;10667;51.056;3.732;2022-12-16T17:15:48;4.30;99.90
21019;DHT22;10667;51.056;3.732;2022-12-16T17:18:32;4.30;99.90
21019;DHT22;10667;51.056;3.732;2022-12-16T17:21:16;4.30;99.90
21019;DHT22;10667;51.056;3.732;2022-12-16T17:24:00;4.30;99.90
21019;DHT22;10667;51.056;3.732;2022-12-16T17:26:44;4.20;99.90
21019;DHT22;10667;51.056;3.732;2022-12-16T17:29:29;4.20;99.90
21019;DHT22;10667;51.056;3.732;2022-12-16T17:32:13;4.20;99.90
21019;DHT22;10667;51.056;3.732;2022-12-16T17:34:58;4.20;99.90
21019;DHT22;10667;51.056;3.732;2022-12-16T17:37:43;4.10;99.90
21019;DHT22;10667;51.056;3.732;2022-12-16T17:40:27;4.10;99.90
21019;DHT22;10667;51.056;3.732;2022-12-16T17:43:12;4.00;99.90
21019;DHT22;10667;51.056;3.732;2022-12-16T17:46:01;4.10;99.90
21019;DHT22;10667;51.056;3.732;2022-12-16T17:48:53;4.00;99.90
21019;DHT22;10667;51.056;3.732;2022-12-16T17:51:38;4.00;99.90
21019;DHT22;10667;51.056;3.732;2022-12-16T17:54:22;4.00;99.90
21019;DHT22;10667;51.056;3.732;2022-12-16T17:57:07;4.00;99.90
21019;DHT22;10667;51.056;3.732;2022-12-16T17:59:52;4.00;99.90
21019;DHT22;10667;51.056;3.732;2022-12-16T18:02:36;4.00;99.90
21019;DHT22;10667;51.056;3.732;2022-12-16T18:05:21;4.00;99.90
21019;DHT22;10667;51.056;3.732;2022-12-16T18:08:05;4.00;99.90
21019;DHT22;10667;51.056;3.732;2022-12-16T18:10:53;3.90;99.90
21019;DHT22;10667;51.056;3.732;2022-12-16T18:13:38;3.90;99.90
21019;DHT22;10667;51.056;3.732;2022-12-16T18:16:33;3.90;99.90
21019;DHT22;10667;51.056;3.732;2022-12-16T18:19:17;3.90;99.90
21019;DHT22;10667;51.056;3.732;2022-12-16T18:22:01;3.90;99.90
21019;DHT22;10667;51.056;3.732;2022-12-16T18:24:46;3.90;99.90
21019;DHT22;10667;51.056;3.732;2022-12-16T18:27:30;3.90;99.90
21019;DHT22;10667;51.056;3.732;2022-12-16T18:30:14;3.80;99.90
21019;DHT22;10667;51.056;3.732;2022-12-16T18:32:58;3.80;99.90
21019;DHT22;10667;51.056;3.732;2022-12-16T18:35:42;3.80;99.90
21019;DHT22;10667;51.056;3.732;2022-12-16T18:38:26;3.80;99.90
21019;DHT22;10667;51.056;3.732;2022-12-16T18:41:15;3.80;99.90
21019;DHT22;10667;51.056;3.732;2022-12-16T18:44:01;3.80;99.90
21019;DHT22;10667;51.056;3.732;2022-12-16T18:46:46;3.80;99.90
21019;DHT22;10667;51.056;3.732;2022-12-16T18:49:30;3.80;99.90
21019;DHT22;10667;51.056;3.732;2022-12-16T18:52:15;3.80;99.90
21019;DHT22;10667;51.056;3.732;2022-12-16T18:54:59;3.70;99.90
21019;DHT22;10667;51.056;3.732;2022-12-16T18:57:44;3.70;99.90
21019;DHT22;10667;51.056;3.732;2022-12-16T19:00:28;3.70;99.90
21019;DHT22;10667;51.056;3.732;2022-12-16T19:03:12;3.70;99.90
21019;DHT22;10667;51.056;3.732;2022-12-16T19:05:57;3.70;99.90
21019;DHT22;10667;51.056;3.732;2022-12-16T19:08:41;3.70;99.90
21019;DHT22;10667;51.056;3.732;2022-12-16T19:11:26;3.60;99.90
21019;DHT22;10667;51.056;3.732;2022-12-16T19:14:10;3.50;99.90
21019;DHT22;10667;51.056;3.732;2022-12-16T19:16:55;3.50;99.90
21019;DHT22;10667;51.056;3.732;2022-12-16T19:19:39;3.50;99.90
21019;DHT22;10667;51.056;3.732;2022-12-16T19:22:23;3.50;99.90
21019;DHT22;10667;51.056;3.732;2022-12-16T19:25:08;3.50;99.90
21019;DHT22;10667;51.056;3.732;2022-12-16T19:27:52;3.50;99.90
21019;DHT22;10667;51.056;3.732;2022-12-16T19:30:36;3.40;99.90
21019;DHT22;10667;51.056;3.732;2022-12-16T19:33:20;3.40;99.90
21019;DHT22;10667;51.056;3.732;2022-12-16T19:36:04;3.30;99.90